sensor_id;sensor_type;location;lat;lon;timestamp;P1;durP1;ratioP1;P2;durP2;ratioP2
22357;SDS011;11346;50.150;8.150;2022-07-25T00:00:39;7.80;;;6.23;;
22357;SDS011;11346;50.150;8.150;2022-07-25T00:03:06;7.20;;;6.20;;
22357;SDS011;11346;50.150;8.150;2022-07-25T00:05:33;8.97;;;6.90;;
22357;SDS011;11346;50.150;8.150;2022-07-25T00:08:02;7.57;;;6.60;;
22357;SDS011;11346;50.150;8.150;2022-07-25T00:10:29;9.47;;;6.80;;
22357;SDS011;11346;50.150;8.150;2022-07-25T00:12:56;8.20;;;6.47;;
22357;SDS011;11346;50.150;8.150;2022-07-25T00:15:23;8.93;;;6.93;;
22357;SDS011;11346;50.150;8.150;2022-07-25T00:17:50;9.10;;;6.53;;
22357;SDS011;11346;50.150;8.150;2022-07-25T00:20:18;13.00;;;6.50;;
22357;SDS011;11346;50.150;8.150;2022-07-25T00:22:45;9.83;;;6.47;;
22357;SDS011;11346;50.150;8.150;2022-07-25T00:25:13;8.50;;;6.70;;
22357;SDS011;11346;50.150;8.150;2022-07-25T00:27:40;8.10;;;6.23;;
22357;SDS011;11346;50.150;8.150;2022-07-25T00:30:08;8.70;;;6.50;;
22357;SDS011;11346;50.150;8.150;2022-07-25T00:32:35;7.53;;;6.70;;
22357;SDS011;11346;50.150;8.150;2022-07-25T00:35:02;8.30;;;6.87;;
22357;SDS011;11346;50.150;8.150;2022-07-25T00:37:31;8.87;;;6.67;;
22357;SDS011;11346;50.150;8.150;2022-07-25T00:39:58;8.70;;;6.80;;
22357;SDS011;11346;50.150;8.150;2022-07-25T00:42:27;9.27;;;6.70;;
22357;SDS011;11346;50.150;8.150;2022-07-25T00:44:54;8.87;;;6.50;;
22357;SDS011;11346;50.150;8.150;2022-07-25T00:47:24;9.53;;;6.50;;
22357;SDS011;11346;50.150;8.150;2022-07-25T00:49:51;8.67;;;6.17;;
22357;SDS011;11346;50.150;8.150;2022-07-25T00:52:18;7.50;;;6.70;;
22357;SDS011;11346;50.150;8.150;2022-07-25T00:54:45;7.67;;;6.70;;
22357;SDS011;11346;50.150;8.150;2022-07-25T00:57:12;10.00;;;6.53;;
22357;SDS011;11346;50.150;8.150;2022-07-25T00:59:41;8.47;;;6.67;;
22357;SDS011;11346;50.150;8.150;2022-07-25T01:02:08;7.77;;;6.57;;
22357;SDS011;11346;50.150;8.150;2022-07-25T01:04:35;8.87;;;6.53;;
22357;SDS011;11346;50.150;8.150;2022-07-25T01:07:02;7.67;;;6.40;;
22357;SDS011;11346;50.150;8.150;2022-07-25T01:09:29;8.20;;;6.77;;
22357;SDS011;11346;50.150;8.150;2022-07-25T01:11:57;8.90;;;6.47;;
22357;SDS011;11346;50.150;8.150;2022-07-25T01:14:24;8.30;;;7.30;;
22357;SDS011;11346;50.150;8.150;2022-07-25T01:16:52;8.53;;;6.83;;
22357;SDS011;11346;50.150;8.150;2022-07-25T01:19:19;7.63;;;6.83;;
22357;SDS011;11346;50.150;8.150;2022-07-25T01:21:48;8.10;;;6.50;;
22357;SDS011;11346;50.150;8.150;2022-07-25T01:24:15;10.00;;;6.70;;
22357;SDS011;11346;50.150;8.150;2022-07-25T01:26:43;9.00;;;7.00;;
22357;SDS011;11346;50.150;8.150;2022-07-25T01:29:10;10.03;;;6.90;;
22357;SDS011;11346;50.150;8.150;2022-07-25T01:31:37;8.13;;;6.50;;
22357;SDS011;11346;50.150;8.150;2022-07-25T01:34:04;8.80;;;6.93;;
22357;SDS011;11346;50.150;8.150;2022-07-25T01:36:31;7.83;;;6.93;;
22357;SDS011;11346;50.150;8.150;2022-07-25T01:39:00;8.90;;;7.03;;
22357;SDS011;11346;50.150;8.150;2022-07-25T01:41:27;9.63;;;6.70;;
22357;SDS011;11346;50.150;8.150;2022-07-25T01:43:54;8.17;;;7.17;;
22357;SDS011;11346;50.150;8.150;2022-07-25T01:46:21;11.37;;;7.33;;
22357;SDS011;11346;50.150;8.150;2022-07-25T01:48:48;12.37;;;7.03;;
22357;SDS011;11346;50.150;8.150;2022-07-25T01:51:15;9.13;;;6.83;;
22357;SDS011;11346;50.150;8.150;2022-07-25T01:53:42;10.67;;;6.93;;
22357;SDS011;11346;50.150;8.150;2022-07-25T01:56:11;9.97;;;7.17;;
22357;SDS011;11346;50.150;8.150;2022-07-25T01:58:38;11.33;;;6.63;;
22357;SDS011;11346;50.150;8.150;2022-07-25T02:01:05;9.33;;;6.83;;
22357;SDS011;11346;50.150;8.150;2022-07-25T02:03:32;8.73;;;6.53;;
22357;SDS011;11346;50.150;8.150;2022-07-25T02:06:01;8.77;;;6.77;;
22357;SDS011;11346;50.150;8.150;2022-07-25T02:08:28;10.53;;;6.53;;
22357;SDS011;11346;50.150;8.150;2022-07-25T02:10:56;8.57;;;6.43;;
22357;SDS011;11346;50.150;8.150;2022-07-25T02:13:25;9.40;;;6.77;;
22357;SDS011;11346;50.150;8.150;2022-07-25T02:15:53;7.07;;;6.37;;
22357;SDS011;11346;50.150;8.150;2022-07-25T02:18:20;10.90;;;6.80;;
22357;SDS011;11346;50.150;8.150;2022-07-25T02:20:47;7.80;;;6.87;;
22357;SDS011;11346;50.150;8.150;2022-07-25T02:23:14;8.43;;;6.87;;
22357;SDS011;11346;50.150;8.150;2022-07-25T02:25:41;8.00;;;7.20;;
22357;SDS011;11346;50.150;8.150;2022-07-25T02:28:08;7.47;;;6.77;;
22357;SDS011;11346;50.150;8.150;2022-07-25T02:30:37;8.30;;;6.43;;
22357;SDS011;11346;50.150;8.150;2022-07-25T02:33:04;8.50;;;6.50;;
22357;SDS011;11346;50.150;8.150;2022-07-25T02:35:31;10.23;;;7.00;;
22357;SDS011;11346;50.150;8.150;2022-07-25T02:37:59;7.23;;;6.53;;
22357;SDS011;11346;50.150;8.150;2022-07-25T02:40:26;9.60;;;7.53;;
22357;SDS011;11346;50.150;8.150;2022-07-25T02:42:53;8.53;;;7.03;;
22357;SDS011;11346;50.150;8.150;2022-07-25T02:45:20;9.60;;;7.53;;
22357;SDS011;11346;50.150;8.150;2022-07-25T02:47:49;8.83;;;7.40;;
22357;SDS011;11346;50.150;8.150;2022-07-25T02:50:16;9.00;;;7.77;;
22357;SDS011;11346;50.150;8.150;2022-07-25T02:52:43;8.57;;;7.33;;
22357;SDS011;11346;50.150;8.150;2022-07-25T02:55:10;8.37;;;6.87;;
22357;SDS011;11346;50.150;8.150;2022-07-25T02:57:38;8.90;;;6.70;;
22357;SDS011;11346;50.150;8.150;2022-07-25T03:00:05;8.93;;;6.93;;
22357;SDS011;11346;50.150;8.150;2022-07-25T03:02:33;10.17;;;7.23;;
22357;SDS011;11346;50.150;8.150;2022-07-25T03:05:01;7.73;;;6.93;;
22357;SDS011;11346;50.150;8.150;2022-07-25T03:07:28;9.97;;;7.30;;
22357;SDS011;11346;50.150;8.150;2022-07-25T03:09:55;9.87;;;7.30;;
22357;SDS011;11346;50.150;8.150;2022-07-25T03:12:22;9.60;;;7.40;;
22357;SDS011;11346;50.150;8.150;2022-07-25T03:14:50;8.53;;;7.20;;
22357;SDS011;11346;50.150;8.150;2022-07-25T03:17:17;10.20;;;7.57;;
22357;SDS011;11346;50.150;8.150;2022-07-25T03:19:44;9.07;;;6.70;;
22357;SDS011;11346;50.150;8.150;2022-07-25T03:22:12;10.03;;;7.37;;
22357;SDS011;11346;50.150;8.150;2022-07-25T03:24:39;9.40;;;7.00;;
22357;SDS011;11346;50.150;8.150;2022-07-25T03:27:07;8.90;;;6.90;;
22357;SDS011;11346;50.150;8.150;2022-07-25T03:29:34;9.37;;;7.10;;
22357;SDS011;11346;50.150;8.150;2022-07-25T03:32:02;10.07;;;7.00;;
22357;SDS011;11346;50.150;8.150;2022-07-25T03:34:29;7.30;;;6.03;;
22357;SDS011;11346;50.150;8.150;2022-07-25T03:36:56;9.57;;;7.53;;
22357;SDS011;11346;50.150;8.150;2022-07-25T03:39:26;7.43;;;6.50;;
22357;SDS011;11346;50.150;8.150;2022-07-25T03:41:53;8.63;;;7.40;;
22357;SDS011;11346;50.150;8.150;2022-07-25T03:44:21;11.77;;;7.30;;
22357;SDS011;11346;50.150;8.150;2022-07-25T03:46:48;8.37;;;6.97;;
22357;SDS011;11346;50.150;8.150;2022-07-25T03:49:15;9.20;;;7.17;;
22357;SDS011;11346;50.150;8.150;2022-07-25T03:51:43;9.83;;;7.17;;
22357;SDS011;11346;50.150;8.150;2022-07-25T03:54:10;9.70;;;7.07;;
22357;SDS011;11346;50.150;8.150;2022-07-25T03:56:40;8.80;;;6.93;;
22357;SDS011;11346;50.150;8.150;2022-07-25T03:59:07;9.10;;;7.70;;
22357;SDS011;11346;50.150;8.150;2022-07-25T04:01:35;7.93;;;7.03;;
22357;SDS011;11346;50.150;8.150;2022-07-25T04:04:02;8.43;;;6.97;;
22357;SDS011;11346;50.150;8.150;2022-07-25T04:06:29;9.63;;;7.17;;
22357;SDS011;11346;50.150;8.150;2022-07-25T04:08:57;9.97;;;7.50;;
22357;SDS011;11346;50.150;8.150;2022-07-25T04:11:24;8.23;;;6.93;;
22357;SDS011;11346;50.150;8.150;2022-07-25T04:13:53;10.60;;;7.63;;
22357;SDS011;11346;50.150;8.150;2022-07-25T04:16:20;8.67;;;6.83;;
22357;SDS011;11346;50.150;8.150;2022-07-25T04:18:47;10.13;;;7.13;;
22357;SDS011;11346;50.150;8.150;2022-07-25T04:21:15;9.67;;;7.63;;
22357;SDS011;11346;50.150;8.150;2022-07-25T04:23:42;10.83;;;7.20;;
22357;SDS011;11346;50.150;8.150;2022-07-25T04:26:09;10.13;;;7.43;;
22357;SDS011;11346;50.150;8.150;2022-07-25T04:28:36;9.53;;;6.93;;
22357;SDS011;11346;50.150;8.150;2022-07-25T04:31:05;10.57;;;7.87;;
22357;SDS011;11346;50.150;8.150;2022-07-25T04:33:32;9.27;;;7.30;;
22357;SDS011;11346;50.150;8.150;2022-07-25T04:36:02;10.03;;;7.57;;
22357;SDS011;11346;50.150;8.150;2022-07-25T04:38:29;11.00;;;7.73;;
22357;SDS011;11346;50.150;8.150;2022-07-25T04:40:56;9.10;;;7.27;;
22357;SDS011;11346;50.150;8.150;2022-07-25T04:43:23;11.70;;;7.30;;
22357;SDS011;11346;50.150;8.150;2022-07-25T04:45:51;10.03;;;7.53;;
22357;SDS011;11346;50.150;8.150;2022-07-25T04:48:19;10.03;;;7.80;;
22357;SDS011;11346;50.150;8.150;2022-07-25T04:50:46;9.27;;;7.37;;
22357;SDS011;11346;50.150;8.150;2022-07-25T04:53:14;11.80;;;7.40;;
22357;SDS011;11346;50.150;8.150;2022-07-25T04:55:41;8.87;;;7.17;;
22357;SDS011;11346;50.150;8.150;2022-07-25T04:58:08;9.80;;;7.40;;
22357;SDS011;11346;50.150;8.150;2022-07-25T05:00:35;10.00;;;7.17;;
22357;SDS011;11346;50.150;8.150;2022-07-25T05:03:02;8.73;;;7.37;;
22357;SDS011;11346;50.150;8.150;2022-07-25T05:05:31;9.67;;;7.27;;
22357;SDS011;11346;50.150;8.150;2022-07-25T05:07:58;14.13;;;7.67;;
22357;SDS011;11346;50.150;8.150;2022-07-25T05:10:26;9.97;;;8.27;;
22357;SDS011;11346;50.150;8.150;2022-07-25T05:12:53;16.10;;;7.47;;
22357;SDS011;11346;50.150;8.150;2022-07-25T05:15:21;9.00;;;7.60;;
22357;SDS011;11346;50.150;8.150;2022-07-25T05:17:48;8.27;;;7.03;;
22357;SDS011;11346;50.150;8.150;2022-07-25T05:20:15;10.37;;;7.57;;
22357;SDS011;11346;50.150;8.150;2022-07-25T05:22:44;9.27;;;7.27;;
22357;SDS011;11346;50.150;8.150;2022-07-25T05:25:11;10.60;;;7.40;;
22357;SDS011;11346;50.150;8.150;2022-07-25T05:27:38;11.03;;;7.47;;
22357;SDS011;11346;50.150;8.150;2022-07-25T05:30:06;11.67;;;8.00;;
22357;SDS011;11346;50.150;8.150;2022-07-25T05:32:34;9.37;;;7.87;;
22357;SDS011;11346;50.150;8.150;2022-07-25T05:35:01;9.90;;;8.17;;
22357;SDS011;11346;50.150;8.150;2022-07-25T05:37:28;16.20;;;7.60;;
22357;SDS011;11346;50.150;8.150;2022-07-25T05:39:57;12.07;;;8.20;;
22357;SDS011;11346;50.150;8.150;2022-07-25T05:42:24;11.17;;;7.90;;
22357;SDS011;11346;50.150;8.150;2022-07-25T05:44:51;10.27;;;7.30;;
22357;SDS011;11346;50.150;8.150;2022-07-25T05:47:18;9.07;;;7.50;;
22357;SDS011;11346;50.150;8.150;2022-07-25T05:49:46;11.40;;;7.07;;
22357;SDS011;11346;50.150;8.150;2022-07-25T05:52:13;11.33;;;7.43;;
22357;SDS011;11346;50.150;8.150;2022-07-25T05:54:40;8.80;;;6.33;;
22357;SDS011;11346;50.150;8.150;2022-07-25T05:57:08;8.13;;;6.47;;
22357;SDS011;11346;50.150;8.150;2022-07-25T05:59:36;9.67;;;6.73;;
22357;SDS011;11346;50.150;8.150;2022-07-25T06:02:03;10.60;;;6.30;;
22357;SDS011;11346;50.150;8.150;2022-07-25T06:04:30;10.10;;;6.97;;
22357;SDS011;11346;50.150;8.150;2022-07-25T06:06:57;7.83;;;6.43;;
22357;SDS011;11346;50.150;8.150;2022-07-25T06:09:24;8.60;;;6.50;;
22357;SDS011;11346;50.150;8.150;2022-07-25T06:11:51;7.37;;;6.57;;
22357;SDS011;11346;50.150;8.150;2022-07-25T06:14:20;8.23;;;6.20;;
22357;SDS011;11346;50.150;8.150;2022-07-25T06:16:47;11.23;;;6.43;;
22357;SDS011;11346;50.150;8.150;2022-07-25T06:19:14;7.60;;;6.73;;
22357;SDS011;11346;50.150;8.150;2022-07-25T06:21:41;8.40;;;6.80;;
22357;SDS011;11346;50.150;8.150;2022-07-25T06:24:08;7.80;;;6.63;;
22357;SDS011;11346;50.150;8.150;2022-07-25T06:26:36;9.40;;;6.20;;
22357;SDS011;11346;50.150;8.150;2022-07-25T06:29:03;7.17;;;6.13;;
22357;SDS011;11346;50.150;8.150;2022-07-25T06:31:32;7.13;;;6.43;;
22357;SDS011;11346;50.150;8.150;2022-07-25T06:33:59;7.30;;;6.50;;
22357;SDS011;11346;50.150;8.150;2022-07-25T06:36:26;8.13;;;6.93;;
22357;SDS011;11346;50.150;8.150;2022-07-25T06:38:53;7.30;;;6.17;;
22357;SDS011;11346;50.150;8.150;2022-07-25T06:41:20;7.77;;;6.27;;
22357;SDS011;11346;50.150;8.150;2022-07-25T06:43:48;7.27;;;5.67;;
22357;SDS011;11346;50.150;8.150;2022-07-25T06:46:15;8.83;;;6.63;;
22357;SDS011;11346;50.150;8.150;2022-07-25T06:48:43;7.33;;;6.23;;
22357;SDS011;11346;50.150;8.150;2022-07-25T06:51:10;8.67;;;6.40;;
22357;SDS011;11346;50.150;8.150;2022-07-25T06:53:37;7.50;;;6.70;;
22357;SDS011;11346;50.150;8.150;2022-07-25T06:56:05;8.47;;;6.60;;
22357;SDS011;11346;50.150;8.150;2022-07-25T06:58:32;10.43;;;6.30;;
22357;SDS011;11346;50.150;8.150;2022-07-25T07:00:59;11.23;;;6.47;;
22357;SDS011;11346;50.150;8.150;2022-07-25T07:03:26;10.50;;;6.43;;
22357;SDS011;11346;50.150;8.150;2022-07-25T07:05:55;9.77;;;6.90;;
22357;SDS011;11346;50.150;8.150;2022-07-25T07:08:22;7.60;;;6.80;;
22357;SDS011;11346;50.150;8.150;2022-07-25T07:10:49;7.27;;;6.10;;
22357;SDS011;11346;50.150;8.150;2022-07-25T07:13:16;7.37;;;6.67;;
22357;SDS011;11346;50.150;8.150;2022-07-25T07:15:44;8.00;;;6.40;;
22357;SDS011;11346;50.150;8.150;2022-07-25T07:18:14;10.13;;;6.60;;
22357;SDS011;11346;50.150;8.150;2022-07-25T07:20:41;10.07;;;6.70;;
22357;SDS011;11346;50.150;8.150;2022-07-25T07:23:10;8.77;;;6.80;;
22357;SDS011;11346;50.150;8.150;2022-07-25T07:25:37;8.50;;;6.90;;
22357;SDS011;11346;50.150;8.150;2022-07-25T07:28:04;10.70;;;6.50;;
22357;SDS011;11346;50.150;8.150;2022-07-25T07:30:31;8.93;;;7.00;;
22357;SDS011;11346;50.150;8.150;2022-07-25T07:32:58;7.73;;;6.57;;
22357;SDS011;11346;50.150;8.150;2022-07-25T07:35:26;6.93;;;6.07;;
22357;SDS011;11346;50.150;8.150;2022-07-25T07:37:53;7.53;;;5.90;;
22357;SDS011;11346;50.150;8.150;2022-07-25T07:40:22;7.60;;;6.77;;
22357;SDS011;11346;50.150;8.150;2022-07-25T07:42:51;8.43;;;7.27;;
22357;SDS011;11346;50.150;8.150;2022-07-25T07:45:19;8.13;;;6.60;;
22357;SDS011;11346;50.150;8.150;2022-07-25T07:47:46;6.83;;;6.20;;
22357;SDS011;11346;50.150;8.150;2022-07-25T07:50:14;7.60;;;6.37;;
22357;SDS011;11346;50.150;8.150;2022-07-25T07:52:42;11.53;;;6.90;;
22357;SDS011;11346;50.150;8.150;2022-07-25T07:55:10;7.00;;;6.30;;
22357;SDS011;11346;50.150;8.150;2022-07-25T07:57:56;7.70;;;6.83;;
22357;SDS011;11346;50.150;8.150;2022-07-25T08:00:24;8.87;;;7.37;;
22357;SDS011;11346;50.150;8.150;2022-07-25T08:02:54;7.90;;;6.93;;
22357;SDS011;11346;50.150;8.150;2022-07-25T08:05:21;9.97;;;5.97;;
22357;SDS011;11346;50.150;8.150;2022-07-25T08:07:48;8.50;;;6.60;;
22357;SDS011;11346;50.150;8.150;2022-07-25T08:10:17;8.67;;;6.57;;
22357;SDS011;11346;50.150;8.150;2022-07-25T08:12:44;8.43;;;6.63;;
22357;SDS011;11346;50.150;8.150;2022-07-25T08:15:13;10.37;;;7.20;;
22357;SDS011;11346;50.150;8.150;2022-07-25T08:17:41;7.47;;;6.10;;
22357;SDS011;11346;50.150;8.150;2022-07-25T08:20:09;8.17;;;6.47;;
22357;SDS011;11346;50.150;8.150;2022-07-25T08:22:37;10.50;;;7.97;;
22357;SDS011;11346;50.150;8.150;2022-07-25T08:25:05;9.87;;;6.80;;
22357;SDS011;11346;50.150;8.150;2022-07-25T08:27:33;7.37;;;6.23;;
22357;SDS011;11346;50.150;8.150;2022-07-25T08:30:04;7.43;;;6.73;;
22357;SDS011;11346;50.150;8.150;2022-07-25T08:32:34;12.47;;;7.13;;
22357;SDS011;11346;50.150;8.150;2022-07-25T08:35:11;7.50;;;6.37;;
22357;SDS011;11346;50.150;8.150;2022-07-25T08:37:38;8.67;;;6.43;;
22357;SDS011;11346;50.150;8.150;2022-07-25T08:40:06;7.83;;;7.03;;
22357;SDS011;11346;50.150;8.150;2022-07-25T08:42:33;8.60;;;6.37;;
22357;SDS011;11346;50.150;8.150;2022-07-25T08:45:02;6.97;;;6.27;;
22357;SDS011;11346;50.150;8.150;2022-07-25T08:47:29;6.80;;;6.10;;
22357;SDS011;11346;50.150;8.150;2022-07-25T08:50:00;7.70;;;6.63;;
22357;SDS011;11346;50.150;8.150;2022-07-25T08:52:28;6.80;;;6.20;;
22357;SDS011;11346;50.150;8.150;2022-07-25T08:54:55;9.40;;;6.30;;
22357;SDS011;11346;50.150;8.150;2022-07-25T08:57:23;8.47;;;6.20;;
22357;SDS011;11346;50.150;8.150;2022-07-25T08:59:50;9.67;;;8.47;;
22357;SDS011;11346;50.150;8.150;2022-07-25T09:02:17;7.90;;;6.50;;
22357;SDS011;11346;50.150;8.150;2022-07-25T09:04:44;8.27;;;6.27;;
22357;SDS011;11346;50.150;8.150;2022-07-25T09:07:13;9.73;;;6.27;;
22357;SDS011;11346;50.150;8.150;2022-07-25T09:09:40;7.03;;;6.40;;
22357;SDS011;11346;50.150;8.150;2022-07-25T09:12:08;6.83;;;6.13;;
22357;SDS011;11346;50.150;8.150;2022-07-25T09:14:42;9.57;;;6.73;;
22357;SDS011;11346;50.150;8.150;2022-07-25T09:17:09;7.33;;;6.60;;
22357;SDS011;11346;50.150;8.150;2022-07-25T09:19:36;9.53;;;6.57;;
22357;SDS011;11346;50.150;8.150;2022-07-25T09:22:04;9.87;;;6.87;;
22357;SDS011;11346;50.150;8.150;2022-07-25T09:24:33;9.43;;;6.83;;
22357;SDS011;11346;50.150;8.150;2022-07-25T09:27:06;7.73;;;6.90;;
22357;SDS011;11346;50.150;8.150;2022-07-25T09:29:33;9.03;;;6.30;;
22357;SDS011;11346;50.150;8.150;2022-07-25T09:32:11;7.67;;;6.67;;
22357;SDS011;11346;50.150;8.150;2022-07-25T09:34:40;7.50;;;6.70;;
22357;SDS011;11346;50.150;8.150;2022-07-25T09:37:08;11.43;;;6.43;;
22357;SDS011;11346;50.150;8.150;2022-07-25T09:39:39;13.73;;;7.50;;
22357;SDS011;11346;50.150;8.150;2022-07-25T09:42:19;9.93;;;7.10;;
22357;SDS011;11346;50.150;8.150;2022-07-25T09:44:57;9.43;;;6.80;;
22357;SDS011;11346;50.150;8.150;2022-07-25T09:47:24;8.70;;;7.43;;
22357;SDS011;11346;50.150;8.150;2022-07-25T09:49:51;12.33;;;6.60;;
22357;SDS011;11346;50.150;8.150;2022-07-25T09:52:18;8.00;;;7.30;;
22357;SDS011;11346;50.150;8.150;2022-07-25T09:54:47;9.47;;;6.73;;
22357;SDS011;11346;50.150;8.150;2022-07-25T09:57:14;8.70;;;7.60;;
22357;SDS011;11346;50.150;8.150;2022-07-25T09:59:41;9.77;;;6.80;;
22357;SDS011;11346;50.150;8.150;2022-07-25T10:02:10;8.20;;;6.97;;
22357;SDS011;11346;50.150;8.150;2022-07-25T10:04:43;7.23;;;6.47;;
22357;SDS011;11346;50.150;8.150;2022-07-25T10:07:11;7.30;;;6.43;;
22357;SDS011;11346;50.150;8.150;2022-07-25T10:09:41;9.03;;;6.80;;
22357;SDS011;11346;50.150;8.150;2022-07-25T10:12:10;7.00;;;6.17;;
22357;SDS011;11346;50.150;8.150;2022-07-25T10:14:38;8.17;;;6.90;;
22357;SDS011;11346;50.150;8.150;2022-07-25T10:17:05;9.17;;;6.37;;
22357;SDS011;11346;50.150;8.150;2022-07-25T10:19:39;8.87;;;6.70;;
22357;SDS011;11346;50.150;8.150;2022-07-25T10:22:07;7.43;;;6.50;;
22357;SDS011;11346;50.150;8.150;2022-07-25T10:24:35;9.50;;;6.17;;
22357;SDS011;11346;50.150;8.150;2022-07-25T10:27:06;7.00;;;5.60;;
22357;SDS011;11346;50.150;8.150;2022-07-25T10:29:36;5.20;;;4.00;;
22357;SDS011;11346;50.150;8.150;2022-07-25T10:32:06;6.33;;;5.17;;
22357;SDS011;11346;50.150;8.150;2022-07-25T10:34:33;6.67;;;5.20;;
22357;SDS011;11346;50.150;8.150;2022-07-25T10:37:10;8.07;;;5.27;;
22357;SDS011;11346;50.150;8.150;2022-07-25T10:39:38;6.97;;;5.63;;
22357;SDS011;11346;50.150;8.150;2022-07-25T10:42:05;6.27;;;5.67;;
22357;SDS011;11346;50.150;8.150;2022-07-25T10:44:40;8.67;;;6.43;;
22357;SDS011;11346;50.150;8.150;2022-07-25T10:47:08;6.30;;;5.27;;
22357;SDS011;11346;50.150;8.150;2022-07-25T10:49:37;10.53;;;5.60;;
22357;SDS011;11346;50.150;8.150;2022-07-25T10:52:05;8.47;;;5.80;;
22357;SDS011;11346;50.150;8.150;2022-07-25T10:54:33;6.10;;;5.07;;
22357;SDS011;11346;50.150;8.150;2022-07-25T10:57:00;6.50;;;5.77;;
22357;SDS011;11346;50.150;8.150;2022-07-25T10:59:29;6.33;;;5.07;;
22357;SDS011;11346;50.150;8.150;2022-07-25T11:01:58;5.63;;;4.97;;
22357;SDS011;11346;50.150;8.150;2022-07-25T11:04:25;7.30;;;5.63;;
22357;SDS011;11346;50.150;8.150;2022-07-25T11:06:52;10.90;;;5.57;;
22357;SDS011;11346;50.150;8.150;2022-07-25T11:09:20;7.57;;;5.80;;
22357;SDS011;11346;50.150;8.150;2022-07-25T11:11:52;6.47;;;5.30;;
22357;SDS011;11346;50.150;8.150;2022-07-25T11:14:20;6.23;;;5.63;;
22357;SDS011;11346;50.150;8.150;2022-07-25T11:16:48;8.90;;;6.13;;
22357;SDS011;11346;50.150;8.150;2022-07-25T11:19:17;6.60;;;5.40;;
22357;SDS011;11346;50.150;8.150;2022-07-25T11:21:45;6.00;;;5.33;;
22357;SDS011;11346;50.150;8.150;2022-07-25T11:24:12;8.43;;;5.97;;
22357;SDS011;11346;50.150;8.150;2022-07-25T11:26:46;7.53;;;5.70;;
22357;SDS011;11346;50.150;8.150;2022-07-25T11:29:17;6.53;;;5.93;;
22357;SDS011;11346;50.150;8.150;2022-07-25T11:31:50;7.80;;;5.37;;
22357;SDS011;11346;50.150;8.150;2022-07-25T11:34:19;7.20;;;5.10;;
22357;SDS011;11346;50.150;8.150;2022-07-25T11:36:47;7.80;;;5.17;;
22357;SDS011;11346;50.150;8.150;2022-07-25T11:39:15;6.93;;;4.90;;
22357;SDS011;11346;50.150;8.150;2022-07-25T11:41:42;4.83;;;4.13;;
22357;SDS011;11346;50.150;8.150;2022-07-25T11:44:09;7.93;;;4.77;;
22357;SDS011;11346;50.150;8.150;2022-07-25T11:46:40;8.17;;;4.53;;
22357;SDS011;11346;50.150;8.150;2022-07-25T11:49:08;5.40;;;4.87;;
22357;SDS011;11346;50.150;8.150;2022-07-25T11:51:37;8.17;;;4.73;;
22357;SDS011;11346;50.150;8.150;2022-07-25T11:54:06;4.70;;;4.30;;
22357;SDS011;11346;50.150;8.150;2022-07-25T11:56:35;5.83;;;4.73;;
22357;SDS011;11346;50.150;8.150;2022-07-25T11:59:03;4.30;;;3.90;;
22357;SDS011;11346;50.150;8.150;2022-07-25T12:01:34;4.93;;;4.10;;
22357;SDS011;11346;50.150;8.150;2022-07-25T12:04:09;4.07;;;3.77;;
22357;SDS011;11346;50.150;8.150;2022-07-25T12:06:37;11.33;;;4.30;;
22357;SDS011;11346;50.150;8.150;2022-07-25T12:09:11;7.77;;;4.67;;
22357;SDS011;11346;50.150;8.150;2022-07-25T12:11:39;6.00;;;4.53;;
22357;SDS011;11346;50.150;8.150;2022-07-25T12:14:06;7.27;;;4.60;;
22357;SDS011;11346;50.150;8.150;2022-07-25T12:16:33;6.03;;;4.73;;
22357;SDS011;11346;50.150;8.150;2022-07-25T12:19:01;5.13;;;4.63;;
22357;SDS011;11346;50.150;8.150;2022-07-25T12:21:28;4.67;;;4.27;;
22357;SDS011;11346;50.150;8.150;2022-07-25T12:23:57;4.57;;;4.10;;
22357;SDS011;11346;50.150;8.150;2022-07-25T12:26:24;7.67;;;4.40;;
22357;SDS011;11346;50.150;8.150;2022-07-25T12:28:51;6.17;;;4.33;;
22357;SDS011;11346;50.150;8.150;2022-07-25T12:31:18;4.80;;;4.10;;
22357;SDS011;11346;50.150;8.150;2022-07-25T12:33:46;9.40;;;4.70;;
22357;SDS011;11346;50.150;8.150;2022-07-25T12:36:13;6.93;;;4.50;;
22357;SDS011;11346;50.150;8.150;2022-07-25T12:38:40;6.13;;;4.73;;
22357;SDS011;11346;50.150;8.150;2022-07-25T12:41:09;6.97;;;4.83;;
22357;SDS011;11346;50.150;8.150;2022-07-25T12:43:36;5.83;;;4.60;;
22357;SDS011;11346;50.150;8.150;2022-07-25T12:46:04;5.87;;;5.27;;
22357;SDS011;11346;50.150;8.150;2022-07-25T12:48:31;5.67;;;4.90;;
22357;SDS011;11346;50.150;8.150;2022-07-25T12:50:58;4.90;;;4.50;;
22357;SDS011;11346;50.150;8.150;2022-07-25T12:53:25;5.87;;;5.13;;
22357;SDS011;11346;50.150;8.150;2022-07-25T12:55:53;5.37;;;4.70;;
22357;SDS011;11346;50.150;8.150;2022-07-25T12:58:21;4.97;;;4.57;;
22357;SDS011;11346;50.150;8.150;2022-07-25T13:00:48;7.63;;;5.07;;
22357;SDS011;11346;50.150;8.150;2022-07-25T13:03:15;6.83;;;4.50;;
22357;SDS011;11346;50.150;8.150;2022-07-25T13:05:42;5.70;;;5.10;;
22357;SDS011;11346;50.150;8.150;2022-07-25T13:08:10;6.30;;;4.87;;
22357;SDS011;11346;50.150;8.150;2022-07-25T13:10:37;5.53;;;4.97;;
22357;SDS011;11346;50.150;8.150;2022-07-25T13:13:04;7.17;;;4.93;;
22357;SDS011;11346;50.150;8.150;2022-07-25T13:15:33;6.47;;;5.17;;
22357;SDS011;11346;50.150;8.150;2022-07-25T13:18:01;7.07;;;5.30;;
22357;SDS011;11346;50.150;8.150;2022-07-25T13:20:28;8.33;;;5.20;;
22357;SDS011;11346;50.150;8.150;2022-07-25T13:22:56;5.47;;;4.97;;
22357;SDS011;11346;50.150;8.150;2022-07-25T13:25:23;5.33;;;4.83;;
22357;SDS011;11346;50.150;8.150;2022-07-25T13:27:50;6.17;;;5.47;;
22357;SDS011;11346;50.150;8.150;2022-07-25T13:30:17;8.00;;;5.17;;
22357;SDS011;11346;50.150;8.150;2022-07-25T13:32:46;6.77;;;5.37;;
22357;SDS011;11346;50.150;8.150;2022-07-25T13:35:13;7.13;;;5.33;;
22357;SDS011;11346;50.150;8.150;2022-07-25T13:37:40;7.30;;;5.30;;
22357;SDS011;11346;50.150;8.150;2022-07-25T13:40:07;9.90;;;4.97;;
22357;SDS011;11346;50.150;8.150;2022-07-25T13:42:35;5.37;;;4.87;;
22357;SDS011;11346;50.150;8.150;2022-07-25T13:45:02;5.77;;;4.80;;
22357;SDS011;11346;50.150;8.150;2022-07-25T13:47:30;5.77;;;5.20;;
22357;SDS011;11346;50.150;8.150;2022-07-25T13:50:00;7.63;;;5.33;;
22357;SDS011;11346;50.150;8.150;2022-07-25T13:52:28;8.30;;;5.17;;
22357;SDS011;11346;50.150;8.150;2022-07-25T13:54:55;5.90;;;4.90;;
22357;SDS011;11346;50.150;8.150;2022-07-25T13:57:22;7.80;;;5.10;;
22357;SDS011;11346;50.150;8.150;2022-07-25T13:59:49;5.50;;;4.97;;
22357;SDS011;11346;50.150;8.150;2022-07-25T14:02:16;6.20;;;4.70;;
22357;SDS011;11346;50.150;8.150;2022-07-25T14:04:43;10.40;;;4.97;;
22357;SDS011;11346;50.150;8.150;2022-07-25T14:07:12;7.60;;;5.70;;
22357;SDS011;11346;50.150;8.150;2022-07-25T14:09:39;7.17;;;5.43;;
22357;SDS011;11346;50.150;8.150;2022-07-25T14:12:07;10.03;;;5.40;;
22357;SDS011;11346;50.150;8.150;2022-07-25T14:14:34;9.63;;;5.47;;
22357;SDS011;11346;50.150;8.150;2022-07-25T14:17:01;5.83;;;5.23;;
22357;SDS011;11346;50.150;8.150;2022-07-25T14:19:28;7.30;;;5.27;;
22357;SDS011;11346;50.150;8.150;2022-07-25T14:21:56;6.10;;;5.60;;
22357;SDS011;11346;50.150;8.150;2022-07-25T14:24:25;5.70;;;5.20;;
22357;SDS011;11346;50.150;8.150;2022-07-25T14:26:52;6.23;;;5.60;;
22357;SDS011;11346;50.150;8.150;2022-07-25T14:29:19;8.43;;;6.00;;
22357;SDS011;11346;50.150;8.150;2022-07-25T14:31:46;6.47;;;5.60;;
22357;SDS011;11346;50.150;8.150;2022-07-25T14:34:13;10.23;;;5.40;;
22357;SDS011;11346;50.150;8.150;2022-07-25T14:36:41;6.37;;;5.40;;
22357;SDS011;11346;50.150;8.150;2022-07-25T14:39:11;7.53;;;4.73;;
22357;SDS011;11346;50.150;8.150;2022-07-25T14:41:40;5.33;;;4.83;;
22357;SDS011;11346;50.150;8.150;2022-07-25T14:44:07;5.53;;;5.03;;
22357;SDS011;11346;50.150;8.150;2022-07-25T14:46:34;5.67;;;4.90;;
22357;SDS011;11346;50.150;8.150;2022-07-25T14:49:02;6.67;;;5.00;;